Flowers Landing, Louisiana
Current Conditions -  °F | °C
As of 7:53 PM on Sunday 25 Jan 2015 (Local Time) from KTVR Reporting Station
Overcast Overcast  
Wind Chill: 57°   Ceiling: 10000
Heat Index: 57°   Visibility: 10mi
Dew Point: 36°   Wind: 9mph
Humidity: 45%   Direction: 300°WNW
Pressure: 29.92"   Gusts: 18mph
Location:  32.1015°N, 91.2929°W
Report Text: KTVR 260153Z AUTO 30008G16KT 10SM OVC100 14/02 A2992 RMK AO2 SLP139 T01390022
Loading
Personal Weather Stations






























Interactive Weather Map New forecast layout! Learn more

10-Day Weather Forecast

Advertisements
Track Severe Weather on mobile